Haci Arif Kaptan — TCQQ — position and weather

sailwx.info

Track history (hours):
 
Tides and Currents Weather Stations Pressure Air Temp Water Temp Dewpoint Dewpoint Depression Visibility Wind Speed Wind Dir Waves Ship Positions

Haci Arif Kaptan

Last reported at 2015-May-24 10:04 UTC. Time now 2015-May-27 05:51 UTC.
Position N 37°40' E 026°33'.

Length 130 m; draft 8.4 m.

Type: Cargo ship. MMSI: 271000494.

Date/timePositionNaut miles runAvg speedWind from/ knotsBaromVisibWave heightAir tempDewpointWater temp
2015-May-24 10:04N 37°40' E 026°33'  
2015-May-20 19:11N 46°35' E 031°14'8 8.8
2015-May-20 18:15N 46°35' E 031°26'5 7.0
2015-May-20 17:33N 46°34' E 031°33'8 7.8
2015-May-20 16:33N 46°36' E 031°44'8 7.6
2015-May-20 15:33N 46°38' E 031°54'7 6.7
2015-May-20 14:33N 46°45' E 031°54'7 7.4
2015-May-20 13:33N 46°52' E 031°58'5 5.2
2015-May-20 12:32N 46°57' E 032°01'0 0.0
2015-May-20 11:32N 46°57' E 032°01'0 0.0
2015-May-20 10:32N 46°57' E 032°01'0 0.0
2015-May-20 09:32N 46°57' E 032°01'0 0.0
2015-May-20 08:32N 46°57' E 032°01'0 0.0
2015-May-20 07:32N 46°57' E 032°01'0 0.0
2015-May-20 06:32N 46°57' E 032°01'0 0.0
2015-May-20 05:32N 46°57' E 032°01'0 0.0
2015-May-20 04:32N 46°57' E 032°01'0 0.0
2015-May-20 03:29N 46°57' E 032°01'0 0.0
2015-May-20 02:32N 46°57' E 032°01'0 0.0
2015-May-20 01:32N 46°57' E 032°01'0 0.0
2015-May-20 00:32N 46°57' E 032°01'0 0.0
2015-May-19 23:32N 46°57' E 032°01'0 0.0
2015-May-19 22:32N 46°57' E 032°01'0 0.0
2015-May-19 21:32N 46°57' E 032°01'0 0.0
2015-May-19 20:32N 46°57' E 032°01'0 0.0
2015-May-19 19:32N 46°57' E 032°01'0 0.0
2015-May-19 18:32N 46°57' E 032°01'0 0.0
2015-May-19 17:32N 46°57' E 032°01'0 0.0
2015-May-19 16:32N 46°57' E 032°01'0 0.0
2015-May-19 15:32N 46°57' E 032°01'0 0.0
2015-May-19 14:32N 46°57' E 032°01'0 0.0
2015-May-19 13:32N 46°57' E 032°01'0 0.0
2015-May-19 12:32N 46°57' E 032°01'0 0.0
2015-May-19 11:32N 46°57' E 032°01'0 0.0
2015-May-19 10:32N 46°57' E 032°01'0 0.0
2015-May-19 09:32N 46°57' E 032°01'0 0.0
2015-May-19 08:32N 46°57' E 032°01'0 0.0
2015-May-19 07:32N 46°57' E 032°01'0 0.0
2015-May-19 06:29N 46°57' E 032°01'0 0.0
2015-May-19 05:32N 46°57' E 032°01'0 0.0
2015-May-19 04:32N 46°57' E 032°01'0 0.0
2015-May-19 03:32N 46°57' E 032°01'0 0.0
2015-May-19 02:32N 46°57' E 032°01'0 0.0
2015-May-19 01:32N 46°57' E 032°01'0 0.0
2015-May-19 00:32N 46°57' E 032°01'0 0.0
2015-May-18 23:32N 46°57' E 032°01'0 0.0
2015-May-18 22:32N 46°57' E 032°01'0 0.0
2015-May-18 21:32N 46°57' E 032°01'0 0.0
2015-May-18 20:32N 46°57' E 032°01'0 0.0
2015-May-18 19:32N 46°57' E 032°01'0 0.0
2015-May-18 18:32N 46°57' E 032°01'0 0.0
2015-May-18 17:29N 46°57' E 032°01'0 0.0
2015-May-18 16:32N 46°57' E 032°01'0 0.0
2015-May-18 15:32N 46°57' E 032°01'0 0.0
2015-May-18 14:32N 46°57' E 032°01'0 0.0
2015-May-18 13:32N 46°57' E 032°01'4 4.4
2015-May-18 12:34N 46°53' E 031°59'9 8.7
2015-May-18 11:34N 46°44' E 031°55'9 8.9
2015-May-18 10:33N 46°36' E 031°49'4 4.4
2015-May-18 09:32N 46°36' E 031°43'0 0.0
2015-May-18 08:26N 46°36' E 031°43'0 0.0
2015-May-18 07:29N 46°36' E 031°43'0 0.0
2015-May-18 06:24N 46°36' E 031°43'5 6.4
2015-May-18 05:33N 46°35' E 031°35'9 8.9
2015-May-18 04:33N 46°35' E 031°22'1410.0
2015-May-18 03:12N 46°34' E 031°02'12 2.0
2015-May-17 21:22N 46°22' E 031°05'0 0.0
2015-May-17 18:19N 46°22' E 031°05'0 0.0
2015-May-17 17:28N 46°22' E 031°05'0 0.0
2015-May-17 16:31N 46°22' E 031°05'0 0.0
2015-May-17 15:31N 46°22' E 031°05'0 0.0
2015-May-17 14:31N 46°22' E 031°05'0 0.0
2015-May-17 13:31N 46°22' E 031°05'0 0.0
2015-May-17 12:22N 46°22' E 031°05'0 0.0
2015-May-17 05:16N 46°22' E 031°05'0 0.0
2015-May-17 04:28N 46°22' E 031°05'0 0.0
2015-May-16 19:07N 46°22' E 031°05'0 0.0
2015-May-16 18:28N 46°22' E 031°05'31410.1
2015-May-15 11:23N 41°19' E 029°12'  
Track history (hours):
 
Tides and Currents Weather Stations Pressure Air Temp Water Temp Dewpoint Dewpoint Depression Visibility Wind Speed Wind Dir Waves Ship Positions

Haci Arif Kaptan

Last reported at 2015-May-24 10:04 UTC. Time now 2015-May-27 05:51 UTC.
Position N 37°40' E 026°33'.

Length 130 m; draft 8.4 m.

Type: Cargo ship. MMSI: 271000494.

Date/timePositionNaut miles runAvg speedWind from/ knotsBaromVisibWave heightAir tempDewpointWater temp
2015-May-24 10:04N 37°40' E 026°33'  
2015-May-20 19:11N 46°35' E 031°14'8 8.8
2015-May-20 18:15N 46°35' E 031°26'5 7.0
2015-May-20 17:33N 46°34' E 031°33'8 7.8
2015-May-20 16:33N 46°36' E 031°44'8 7.6
2015-May-20 15:33N 46°38' E 031°54'7 6.7
2015-May-20 14:33N 46°45' E 031°54'7 7.4
2015-May-20 13:33N 46°52' E 031°58'5 5.2
2015-May-20 12:32N 46°57' E 032°01'0 0.0
2015-May-20 11:32N 46°57' E 032°01'0 0.0
2015-May-20 10:32N 46°57' E 032°01'0 0.0
2015-May-20 09:32N 46°57' E 032°01'0 0.0
2015-May-20 08:32N 46°57' E 032°01'0 0.0
2015-May-20 07:32N 46°57' E 032°01'0 0.0
2015-May-20 06:32N 46°57' E 032°01'0 0.0
2015-May-20 05:32N 46°57' E 032°01'0 0.0
2015-May-20 04:32N 46°57' E 032°01'0 0.0
2015-May-20 03:29N 46°57' E 032°01'0 0.0
2015-May-20 02:32N 46°57' E 032°01'0 0.0
2015-May-20 01:32N 46°57' E 032°01'0 0.0
2015-May-20 00:32N 46°57' E 032°01'0 0.0
2015-May-19 23:32N 46°57' E 032°01'0 0.0
2015-May-19 22:32N 46°57' E 032°01'0 0.0
2015-May-19 21:32N 46°57' E 032°01'0 0.0
2015-May-19 20:32N 46°57' E 032°01'0 0.0
2015-May-19 19:32N 46°57' E 032°01'0 0.0
2015-May-19 18:32N 46°57' E 032°01'0 0.0
2015-May-19 17:32N 46°57' E 032°01'0 0.0
2015-May-19 16:32N 46°57' E 032°01'0 0.0
2015-May-19 15:32N 46°57' E 032°01'0 0.0
2015-May-19 14:32N 46°57' E 032°01'0 0.0
2015-May-19 13:32N 46°57' E 032°01'0 0.0
2015-May-19 12:32N 46°57' E 032°01'0 0.0
2015-May-19 11:32N 46°57' E 032°01'0 0.0
2015-May-19 10:32N 46°57' E 032°01'0 0.0
2015-May-19 09:32N 46°57' E 032°01'0 0.0
2015-May-19 08:32N 46°57' E 032°01'0 0.0
2015-May-19 07:32N 46°57' E 032°01'0 0.0
2015-May-19 06:29N 46°57' E 032°01'0 0.0
2015-May-19 05:32N 46°57' E 032°01'0 0.0
2015-May-19 04:32N 46°57' E 032°01'0 0.0
2015-May-19 03:32N 46°57' E 032°01'0 0.0
2015-May-19 02:32N 46°57' E 032°01'0 0.0
2015-May-19 01:32N 46°57' E 032°01'0 0.0
2015-May-19 00:32N 46°57' E 032°01'0 0.0
2015-May-18 23:32N 46°57' E 032°01'0 0.0
2015-May-18 22:32N 46°57' E 032°01'0 0.0
2015-May-18 21:32N 46°57' E 032°01'0 0.0
2015-May-18 20:32N 46°57' E 032°01'0 0.0
2015-May-18 19:32N 46°57' E 032°01'0 0.0
2015-May-18 18:32N 46°57' E 032°01'0 0.0
2015-May-18 17:29N 46°57' E 032°01'0 0.0
2015-May-18 16:32N 46°57' E 032°01'0 0.0
2015-May-18 15:32N 46°57' E 032°01'0 0.0
2015-May-18 14:32N 46°57' E 032°01'0 0.0
2015-May-18 13:32N 46°57' E 032°01'4 4.4
2015-May-18 12:34N 46°53' E 031°59'9 8.7
2015-May-18 11:34N 46°44' E 031°55'9 8.9
2015-May-18 10:33N 46°36' E 031°49'4 4.4
2015-May-18 09:32N 46°36' E 031°43'0 0.0
2015-May-18 08:26N 46°36' E 031°43'0 0.0
2015-May-18 07:29N 46°36' E 031°43'0 0.0
2015-May-18 06:24N 46°36' E 031°43'5 6.4
2015-May-18 05:33N 46°35' E 031°35'9 8.9
2015-May-18 04:33N 46°35' E 031°22'1410.0
2015-May-18 03:12N 46°34' E 031°02'12 2.0
2015-May-17 21:22N 46°22' E 031°05'0 0.0
2015-May-17 18:19N 46°22' E 031°05'0 0.0
2015-May-17 17:28N 46°22' E 031°05'0 0.0
2015-May-17 16:31N 46°22' E 031°05'0 0.0
2015-May-17 15:31N 46°22' E 031°05'0 0.0
2015-May-17 14:31N 46°22' E 031°05'0 0.0
2015-May-17 13:31N 46°22' E 031°05'0 0.0
2015-May-17 12:22N 46°22' E 031°05'0 0.0
2015-May-17 05:16N 46°22' E 031°05'0 0.0
2015-May-17 04:28N 46°22' E 031°05'0 0.0
2015-May-16 19:07N 46°22' E 031°05'0 0.0
2015-May-16 18:28N 46°22' E 031°05'31410.1
2015-May-15 11:23N 41°19' E 029°12'  

Dump ship's entire track history